Disputanta, Virginia
Current Conditions -  °F | °C
As of 2:54 AM on Friday 19 Dec 2014 (Local Time) from KAKQ Reporting Station
Broken Clouds Broken Clouds  
Wind Chill: 29°   Ceiling: 10000
Heat Index: 29°   Visibility: 10mi
Dew Point: 26°   Wind: 0mph
Humidity: 89%   Direction: NA
Pressure: 30.12"   Gusts: NA
Location:  37.12°N, 77.23°W
Report Text: KAKQ 190754Z AUTO 00000KT 10SM BKN100 M02/M03 A3012 RMK AO2 SLP202 T10171033 TSNO
Loading
Personal Weather Stations






























Interactive Weather Map New forecast layout! Learn more

10-Day Weather Forecast

Advertisements
Track Severe Weather on mobile